createdAt,value
2023-04-29T00:00:03.448Z,23.50
2023-04-29T00:03:29.163Z,23.20
2023-04-29T00:06:32.623Z,23.20
2023-04-29T00:09:35.210Z,23.20
2023-04-29T00:12:37.404Z,23.30
2023-04-29T00:15:41.982Z,23.20
2023-04-29T00:18:50.661Z,23.30
2023-04-29T00:21:54.828Z,23.30
2023-04-29T00:24:57.147Z,23.30
2023-04-29T00:28:02.477Z,23.30
2023-04-29T00:31:05.614Z,23.30
2023-04-29T00:34:11.048Z,23.20
2023-04-29T00:37:14.131Z,23.40
2023-04-29T00:40:17.460Z,23.30
2023-04-29T00:43:19.968Z,23.40
2023-04-29T00:46:28.280Z,23.30
2023-04-29T00:49:32.885Z,23.30
2023-04-29T00:52:38.232Z,23.40
2023-04-29T00:55:42.240Z,23.50
2023-04-29T00:58:54.615Z,23.50
2023-04-29T01:01:57.036Z,23.60
2023-04-29T01:05:05.811Z,23.70
2023-04-29T01:08:19.048Z,23.90
2023-04-29T01:11:26.221Z,23.80
2023-04-29T01:14:29.523Z,24.00
2023-04-29T01:17:40.332Z,24.00
2023-04-29T01:20:45.304Z,23.80
2023-04-29T01:23:56.457Z,24.00
2023-04-29T01:27:10.788Z,23.90
2023-04-29T01:30:33.405Z,24.00
2023-04-29T01:34:02.964Z,24.20
2023-04-29T01:37:37.899Z,24.20
2023-04-29T01:41:08.029Z,24.20
2023-04-29T01:44:22.503Z,24.30
2023-04-29T01:47:26.196Z,24.30
2023-04-29T01:50:33.003Z,24.20
2023-04-29T01:53:38.963Z,24.20
2023-04-29T01:56:45.133Z,24.20
2023-04-29T01:59:48.357Z,24.20
2023-04-29T02:02:51.151Z,24.20
2023-04-29T02:05:54.538Z,24.20
2023-04-29T02:08:58.147Z,24.40
2023-04-29T02:12:00.857Z,24.40
2023-04-29T02:15:07.165Z,24.20
2023-04-29T02:18:12.579Z,24.30
2023-04-29T02:21:16.094Z,24.40
2023-04-29T02:24:22.546Z,24.40
2023-04-29T02:27:26.878Z,24.40
2023-04-29T02:30:31.642Z,24.50
2023-04-29T02:33:36.874Z,24.70
2023-04-29T02:36:40.541Z,24.70
2023-04-29T02:39:44.570Z,24.60
2023-04-29T02:42:47.453Z,24.50
2023-04-29T02:45:50.955Z,24.50
2023-04-29T02:48:56.713Z,24.40
2023-04-29T02:52:02.178Z,24.40
2023-04-29T02:55:06.358Z,24.50
2023-04-29T02:58:13.147Z,24.60
2023-04-29T03:01:16.185Z,24.50
2023-04-29T03:04:25.426Z,24.50
2023-04-29T03:07:30.577Z,24.60
2023-04-29T03:10:37.188Z,24.60
2023-04-29T03:13:44.173Z,24.70
2023-04-29T03:16:47.239Z,24.90
2023-04-29T03:19:57.317Z,25.00
2023-04-29T03:23:00.991Z,25.10
2023-04-29T03:26:03.224Z,25.10
2023-04-29T03:29:08.799Z,25.30
2023-04-29T03:32:13.597Z,26.10
2023-04-29T03:35:18.884Z,26.20
2023-04-29T03:38:21.203Z,26.00
2023-04-29T03:41:35.856Z,25.90
2023-04-29T03:44:45.792Z,25.90
2023-04-29T03:48:00.228Z,25.80
2023-04-29T03:51:02.659Z,25.90
2023-04-29T03:54:13.079Z,25.90
2023-04-29T03:57:27.567Z,26.00
2023-04-29T04:00:41.187Z,25.80
2023-04-29T04:03:43.522Z,25.80
2023-04-29T04:06:51.203Z,25.90
2023-04-29T04:09:53.529Z,26.20
2023-04-29T04:12:59.905Z,25.90
2023-04-29T04:16:02.420Z,25.80
2023-04-29T04:19:06.202Z,26.10
2023-04-29T04:22:12.963Z,26.50
2023-04-29T04:25:16.517Z,25.90
2023-04-29T04:28:19.803Z,26.10
2023-04-29T04:31:22.879Z,25.80
2023-04-29T04:34:29.960Z,25.70
2023-04-29T04:37:34.898Z,26.00
2023-04-29T04:40:42.637Z,25.60
2023-04-29T04:43:48.760Z,25.60
2023-04-29T04:46:52.215Z,25.80
2023-04-29T04:49:54.732Z,25.70
2023-04-29T04:52:58.424Z,25.90
2023-04-29T04:56:26.162Z,26.10
2023-04-29T04:59:29.238Z,26.50
2023-04-29T05:02:31.684Z,26.40
2023-04-29T05:05:38.245Z,26.10
2023-04-29T05:08:41.417Z,26.30
2023-04-29T05:11:43.982Z,26.40
2023-04-29T05:14:46.568Z,26.50
2023-04-29T05:17:49.163Z,26.40
2023-04-29T05:20:51.333Z,26.30
2023-04-29T05:23:53.599Z,26.20
2023-04-29T05:27:11.255Z,26.30
2023-04-29T05:30:18.532Z,26.20
2023-04-29T05:38:41.833Z,25.80
2023-04-29T05:42:08.768Z,25.50
2023-04-29T05:45:10.914Z,25.30
2023-04-29T05:48:18.994Z,24.80
2023-04-29T05:51:25.174Z,25.10
2023-04-29T05:54:28.565Z,24.90
2023-04-29T05:57:31.036Z,24.80
2023-04-29T06:00:33.630Z,24.90
2023-04-29T06:03:36.613Z,24.80
2023-04-29T06:06:39.644Z,24.70
2023-04-29T06:09:42.885Z,24.70
2023-04-29T06:13:08.647Z,24.70
2023-04-29T06:16:29.800Z,25.10
2023-04-29T06:19:59.068Z,24.90
2023-04-29T06:23:01.032Z,24.60
2023-04-29T06:26:06.846Z,24.30
2023-04-29T06:30:19.731Z,24.30
2023-04-29T06:34:10.363Z,24.40
2023-04-29T06:42:17.470Z,24.20
2023-04-29T07:02:17.239Z,24.60
2023-04-29T07:05:31.800Z,23.80
2023-04-29T07:08:34.070Z,23.70
2023-04-29T07:12:24.127Z,23.50
2023-04-29T07:15:37.178Z,23.50
2023-04-29T07:19:22.582Z,23.50
2023-04-29T07:22:36.840Z,23.20
2023-04-29T07:31:26.215Z,23.20
2023-04-29T07:34:37.494Z,23.10
2023-04-29T07:47:03.497Z,23.40
2023-04-29T07:51:39.834Z,23.70
2023-04-29T08:04:48.350Z,24.20
2023-04-29T08:17:28.245Z,23.90
2023-04-29T08:20:30.604Z,23.70
2023-04-29T08:23:33.136Z,23.70
2023-04-29T08:26:35.548Z,23.70
2023-04-29T08:29:37.666Z,23.10
2023-04-29T08:32:40.002Z,23.30
2023-04-29T08:35:42.602Z,23.30
2023-04-29T08:38:44.987Z,23.10
2023-04-29T08:41:51.224Z,22.90
2023-04-29T08:44:54.287Z,23.10
2023-04-29T08:47:57.444Z,23.20
2023-04-29T08:51:00.712Z,22.70
2023-04-29T08:54:02.822Z,22.50
2023-04-29T08:57:06.277Z,22.70
2023-04-29T09:00:10.684Z,22.80
2023-04-29T09:03:21.118Z,23.50
2023-04-29T09:06:24.011Z,23.10
2023-04-29T09:09:26.785Z,23.40
2023-04-29T09:12:30.444Z,22.80
2023-04-29T09:15:41.381Z,23.10
2023-04-29T09:18:49.081Z,22.50
2023-04-29T09:21:57.737Z,23.00
2023-04-29T09:25:12.869Z,23.50
2023-04-29T09:28:19.342Z,24.30
2023-04-29T09:31:28.325Z,24.00
2023-04-29T09:34:32.553Z,24.30
2023-04-29T09:37:38.143Z,23.40
2023-04-29T09:40:57.575Z,24.20
2023-04-29T09:44:07.898Z,23.80
2023-04-29T09:47:10.855Z,24.20
2023-04-29T09:50:16.489Z,23.80
2023-04-29T09:53:29.807Z,23.30
2023-04-29T09:56:49.670Z,22.90
2023-04-29T09:59:51.920Z,23.20
2023-04-29T10:02:56.286Z,23.10
2023-04-29T10:06:00.217Z,22.90
2023-04-29T10:09:02.319Z,23.10
2023-04-29T10:12:07.440Z,23.30
2023-04-29T10:15:19.123Z,23.00
2023-04-29T10:18:26.333Z,23.10
2023-04-29T10:21:31.309Z,23.30
2023-04-29T10:24:37.737Z,23.10
2023-04-29T10:27:41.473Z,23.10
2023-04-29T10:30:57.159Z,23.20
2023-04-29T10:34:03.613Z,23.00
2023-04-29T10:37:10.307Z,23.70
2023-04-29T10:40:17.964Z,23.00
2023-04-29T10:43:24.988Z,23.00
2023-04-29T10:46:27.329Z,23.10
2023-04-29T10:49:35.155Z,23.10
2023-04-29T10:52:53.151Z,23.30
2023-04-29T10:56:04.834Z,23.60
2023-04-29T10:59:40.261Z,23.80
2023-04-29T11:02:46.014Z,25.70
2023-04-29T11:05:48.188Z,27.80
2023-04-29T11:09:01.927Z,28.10
2023-04-29T11:12:05.932Z,27.90
2023-04-29T11:15:11.113Z,27.20
2023-04-29T11:18:13.857Z,28.70
2023-04-29T11:21:16.219Z,28.60
2023-04-29T11:24:35.149Z,28.20
2023-04-29T11:27:40.712Z,28.10
2023-04-29T11:30:45.498Z,26.80
2023-04-29T11:34:08.271Z,27.10
2023-04-29T11:37:11.064Z,27.50
2023-04-29T11:40:17.509Z,26.80
2023-04-29T11:43:20.831Z,26.70
2023-04-29T11:46:32.283Z,27.00
2023-04-29T11:49:37.500Z,26.60
2023-04-29T11:53:04.905Z,27.00
2023-04-29T11:56:29.989Z,27.20
2023-04-29T11:59:47.535Z,27.30
2023-04-29T12:02:55.678Z,27.90
2023-04-29T12:05:57.998Z,28.50
2023-04-29T12:09:18.653Z,28.70
2023-04-29T12:12:57.294Z,28.60
2023-04-29T12:16:17.348Z,28.50
2023-04-29T12:19:19.600Z,28.90
2023-04-29T12:22:21.749Z,29.20
2023-04-29T12:29:37.404Z,27.90
2023-04-29T12:32:52.195Z,27.80
2023-04-29T12:36:13.264Z,26.70
2023-04-29T12:39:22.870Z,27.90
2023-04-29T12:43:29.378Z,27.70
2023-04-29T12:46:56.295Z,26.90
2023-04-29T12:58:09.350Z,27.00
2023-04-29T13:05:04.892Z,27.10
2023-04-29T13:12:48.524Z,27.00
2023-04-29T13:16:18.040Z,27.20
2023-04-29T13:19:46.834Z,26.20
2023-04-29T13:23:14.469Z,26.30
2023-04-29T13:26:37.475Z,26.50
2023-04-29T13:29:51.640Z,26.60
2023-04-29T13:33:12.401Z,26.80
2023-04-29T13:36:23.927Z,26.30
2023-04-29T13:39:38.241Z,26.40
2023-04-29T13:42:50.471Z,26.20
2023-04-29T13:45:58.723Z,26.40
2023-04-29T13:49:22.506Z,27.00
2023-04-29T13:59:31.661Z,25.60
2023-04-29T14:09:23.829Z,27.00
2023-04-29T14:12:34.058Z,27.90
2023-04-29T14:15:44.114Z,28.90
2023-04-29T14:18:48.952Z,29.10
2023-04-29T14:21:51.799Z,29.40
2023-04-29T14:24:54.378Z,29.70
2023-04-29T14:28:22.170Z,30.00
2023-04-29T14:31:43.442Z,30.20
2023-04-29T14:34:56.034Z,30.50
2023-04-29T14:38:07.999Z,31.40
2023-04-29T14:44:56.917Z,31.20
2023-04-29T14:48:20.185Z,31.10
2023-04-29T14:51:24.108Z,31.20
2023-04-29T14:54:27.214Z,31.30
2023-04-29T14:57:29.971Z,32.40
2023-04-29T15:00:32.035Z,33.20
2023-04-29T15:06:42.282Z,32.60
2023-04-29T15:09:45.820Z,32.80
2023-04-29T15:12:47.828Z,32.30
2023-04-29T15:15:50.900Z,33.00
2023-04-29T15:18:52.852Z,31.80
2023-04-29T15:21:55.131Z,32.00
2023-04-29T15:24:57.090Z,31.30
2023-04-29T15:27:59.514Z,32.00
2023-04-29T15:31:03.796Z,32.00
2023-04-29T15:34:06.600Z,31.00
2023-04-29T15:37:08.555Z,30.50
2023-04-29T15:40:11.285Z,30.50
2023-04-29T15:43:13.290Z,30.30
2023-04-29T15:46:32.467Z,30.30
2023-04-29T15:49:43.005Z,30.00
2023-04-29T15:52:45.921Z,30.10
2023-04-29T15:55:47.911Z,30.50
2023-04-29T15:58:50.364Z,30.80
2023-04-29T16:01:52.457Z,30.20
2023-04-29T16:04:54.875Z,31.00
2023-04-29T16:08:23.719Z,31.80
2023-04-29T16:11:26.393Z,32.30
2023-04-29T16:14:29.193Z,32.40
2023-04-29T16:17:34.620Z,32.30
2023-04-29T16:20:36.763Z,32.80
2023-04-29T16:23:39.022Z,33.20
2023-04-29T16:26:41.469Z,33.30
2023-04-29T16:29:45.274Z,33.40
2023-04-29T16:32:48.018Z,33.70
2023-04-29T16:35:50.423Z,34.10
2023-04-29T16:38:54.975Z,34.10
2023-04-29T16:41:59.546Z,34.00
2023-04-29T16:45:01.750Z,34.10
2023-04-29T16:48:04.378Z,35.10
2023-04-29T16:51:06.560Z,34.50
2023-04-29T16:54:08.906Z,34.50
2023-04-29T16:57:10.828Z,34.90
2023-04-29T17:00:13.372Z,34.60
2023-04-29T17:03:23.233Z,35.10
2023-04-29T17:06:32.314Z,34.80
2023-04-29T17:09:34.504Z,35.30
2023-04-29T17:12:37.016Z,34.80
2023-04-29T17:15:38.926Z,34.60
2023-04-29T17:18:47.141Z,34.20
2023-04-29T17:21:49.629Z,34.50
2023-04-29T17:24:52.200Z,34.80
2023-04-29T17:27:57.151Z,35.60
2023-04-29T17:31:06.417Z,35.30
2023-04-29T17:34:18.809Z,35.60
2023-04-29T17:37:25.765Z,35.20
2023-04-29T17:40:27.937Z,35.20
2023-04-29T17:43:41.941Z,35.30
2023-04-29T17:46:46.723Z,34.50
2023-04-29T17:50:03.071Z,34.20
2023-04-29T17:53:08.250Z,33.80
2023-04-29T17:56:10.794Z,33.40
2023-04-29T17:59:12.789Z,33.30
2023-04-29T18:02:15.169Z,33.40
2023-04-29T18:05:17.329Z,33.50
2023-04-29T18:08:20.212Z,33.30
2023-04-29T18:11:37.609Z,33.00
2023-04-29T18:14:46.273Z,33.50
2023-04-29T18:17:48.579Z,33.70
2023-04-29T18:20:50.947Z,33.90
2023-04-29T18:23:56.027Z,33.60
2023-04-29T18:27:04.587Z,33.50
2023-04-29T18:30:07.720Z,33.60
2023-04-29T18:33:10.045Z,33.60
2023-04-29T18:36:14.120Z,33.60
2023-04-29T18:39:17.017Z,33.80
2023-04-29T18:42:19.007Z,33.60
2023-04-29T18:45:21.230Z,33.20
2023-04-29T18:48:24.029Z,33.20
2023-04-29T18:51:26.412Z,33.90
2023-04-29T18:54:28.418Z,34.20
2023-04-29T18:57:30.844Z,34.30
2023-04-29T19:00:32.805Z,34.50
2023-04-29T19:03:35.495Z,34.70
2023-04-29T19:06:37.871Z,35.90
2023-04-29T19:09:40.242Z,35.30
2023-04-29T19:12:42.256Z,35.00
2023-04-29T19:15:44.633Z,35.50
2023-04-29T19:18:46.815Z,34.90
2023-04-29T19:21:49.127Z,35.40
2023-04-29T19:24:51.135Z,34.60
2023-04-29T19:27:53.702Z,35.60
2023-04-29T19:30:56.074Z,35.50
2023-04-29T19:33:58.334Z,35.10
2023-04-29T19:37:01.092Z,34.50
2023-04-29T19:40:04.127Z,35.00
2023-04-29T19:43:06.237Z,35.20
2023-04-29T19:46:08.749Z,34.70
2023-04-29T19:49:11.861Z,35.70
2023-04-29T19:52:14.270Z,35.70
2023-04-29T19:55:17.309Z,36.50
2023-04-29T19:58:20.094Z,35.60
2023-04-29T20:01:22.275Z,36.30
2023-04-29T20:04:25.467Z,36.40
2023-04-29T20:07:27.453Z,36.10
2023-04-29T20:10:30.185Z,35.70
2023-04-29T20:13:32.278Z,35.10
2023-04-29T20:16:35.690Z,34.70
2023-04-29T20:19:37.780Z,34.30
2023-04-29T20:22:40.104Z,33.60
2023-04-29T20:25:42.290Z,32.30
2023-04-29T20:28:44.672Z,31.10
2023-04-29T20:31:46.825Z,31.30
2023-04-29T20:34:49.314Z,30.80
2023-04-29T20:37:51.386Z,30.70
2023-04-29T20:40:54.337Z,30.50
2023-04-29T20:43:58.663Z,30.10
2023-04-29T20:47:01.154Z,30.70
2023-04-29T20:50:04.701Z,30.10
2023-04-29T20:53:07.172Z,30.10
2023-04-29T20:56:10.525Z,29.90
2023-04-29T20:59:13.274Z,29.80
2023-04-29T21:02:15.593Z,30.00
2023-04-29T21:05:18.002Z,30.00
2023-04-29T21:08:19.933Z,30.20
2023-04-29T21:11:22.343Z,30.30
2023-04-29T21:14:24.288Z,30.20
2023-04-29T21:17:26.754Z,29.70
2023-04-29T21:20:28.818Z,29.50
2023-04-29T21:23:33.436Z,29.00
2023-04-29T21:26:35.555Z,28.70
2023-04-29T21:29:41.012Z,28.90
2023-04-29T21:32:43.102Z,28.30
2023-04-29T21:35:50.218Z,27.40
2023-04-29T21:38:55.678Z,27.20
2023-04-29T21:42:03.063Z,26.90
2023-04-29T21:45:05.893Z,26.70
2023-04-29T21:48:20.552Z,26.50
2023-04-29T21:51:22.869Z,26.60
2023-04-29T21:54:25.103Z,26.20
2023-04-29T21:57:42.702Z,26.50
2023-04-29T22:00:51.231Z,26.50
2023-04-29T22:03:55.020Z,26.60
2023-04-29T22:06:58.811Z,26.70
2023-04-29T22:10:01.053Z,26.50
2023-04-29T22:13:03.306Z,27.00
2023-04-29T22:16:05.705Z,26.70
2023-04-29T22:19:08.578Z,26.60
2023-04-29T22:22:10.658Z,26.90
2023-04-29T22:25:12.927Z,26.50
2023-04-29T22:28:15.311Z,26.80
2023-04-29T22:31:17.566Z,26.20
2023-04-29T22:34:23.269Z,26.00
2023-04-29T22:37:25.717Z,25.80
2023-04-29T22:40:27.711Z,25.90
2023-04-29T22:43:33.091Z,26.20
2023-04-29T22:46:37.759Z,26.40
2023-04-29T22:49:40.992Z,26.30
2023-04-29T22:52:42.965Z,26.10
2023-04-29T22:55:56.319Z,26.50
2023-04-29T22:58:58.388Z,26.60
2023-04-29T23:02:03.190Z,26.30
2023-04-29T23:05:06.085Z,26.70
2023-04-29T23:08:08.646Z,26.80
2023-04-29T23:11:11.989Z,26.50
2023-04-29T23:14:14.261Z,27.10
2023-04-29T23:17:16.263Z,27.00
2023-04-29T23:20:18.617Z,26.70
2023-04-29T23:23:20.560Z,26.80
2023-04-29T23:26:23.372Z,26.90
2023-04-29T23:29:25.324Z,26.90
2023-04-29T23:32:27.725Z,27.00
2023-04-29T23:35:29.834Z,27.00
2023-04-29T23:38:32.101Z,27.30
2023-04-29T23:41:34.235Z,27.30
2023-04-29T23:44:36.491Z,27.30
2023-04-29T23:47:38.465Z,27.40
2023-04-29T23:50:40.847Z,27.50
2023-04-29T23:53:42.821Z,27.90
2023-04-29T23:56:45.206Z,27.70
2023-04-29T23:59:47.407Z,27.70
